createdAt,value
2016-05-10T00:00:14.939Z,16.36
2016-05-10T00:01:14.924Z,16.35
2016-05-10T00:02:14.894Z,16.32
2016-05-10T00:03:14.882Z,16.36
2016-05-10T00:04:14.854Z,16.43
2016-05-10T00:05:14.841Z,16.39
2016-05-10T00:06:14.827Z,16.36
2016-05-10T00:07:14.815Z,16.26
2016-05-10T00:08:14.786Z,16.29
2016-05-10T00:09:14.773Z,16.31
2016-05-10T00:10:14.760Z,16.31
2016-05-10T00:11:14.732Z,16.29
2016-05-10T00:12:14.563Z,16.28
2016-05-10T00:13:14.717Z,16.21
2016-05-10T00:14:14.745Z,16.24
2016-05-10T00:15:14.758Z,16.21
2016-05-10T00:16:14.787Z,16.21
2016-05-10T00:17:14.815Z,16.16
2016-05-10T00:18:14.810Z,16.13
2016-05-10T00:19:14.811Z,16.09
2016-05-10T00:20:14.797Z,16.05
2016-05-10T00:21:14.799Z,16.12
2016-05-10T00:22:14.785Z,16.12
2016-05-10T00:23:14.780Z,16.05
2016-05-10T00:24:14.773Z,16.08
2016-05-10T00:25:14.766Z,16.08
2016-05-10T00:26:14.742Z,16.05
2016-05-10T00:27:14.719Z,16
2016-05-10T00:28:14.553Z,16.01
2016-05-10T00:29:15.120Z,15.94
2016-05-10T00:30:14.688Z,15.94
2016-05-10T00:31:14.660Z,15.91
2016-05-10T00:32:14.650Z,15.9
2016-05-10T00:33:14.606Z,15.88
2016-05-10T00:34:14.610Z,15.86
2016-05-10T00:35:14.582Z,15.84
2016-05-10T00:36:14.554Z,15.84
2016-05-10T00:37:14.542Z,15.84
2016-05-10T00:38:14.529Z,15.75
2016-05-10T00:39:14.502Z,15.76
2016-05-10T00:40:14.488Z,15.84
2016-05-10T00:41:14.460Z,15.77
2016-05-10T00:42:14.291Z,15.76
2016-05-10T00:43:14.435Z,15.75
2016-05-10T00:44:14.407Z,15.8
2016-05-10T00:45:14.393Z,15.76
2016-05-10T00:46:14.366Z,15.76
2016-05-10T00:47:14.352Z,15.75
2016-05-10T00:48:14.324Z,15.75
2016-05-10T00:49:14.311Z,15.72
2016-05-10T00:50:14.141Z,15.77
2016-05-10T00:51:14.269Z,15.7
2016-05-10T00:52:14.256Z,15.58
2016-05-10T00:53:14.087Z,15.65
2016-05-10T00:54:14.215Z,15.62
2016-05-10T00:55:14.187Z,15.61
2016-05-10T00:56:14.174Z,15.64
2016-05-10T00:57:14.160Z,15.64
2016-05-10T00:58:14.132Z,15.65
2016-05-10T00:59:14.118Z,15.68
2016-05-10T01:00:14.090Z,15.58
2016-05-10T01:01:14.078Z,15.59
2016-05-10T01:02:14.048Z,15.64
2016-05-10T01:03:14.036Z,15.58
2016-05-10T01:04:14.007Z,15.62
2016-05-10T01:05:14.010Z,15.57
2016-05-10T01:06:13.809Z,15.67
2016-05-10T01:07:13.953Z,15.59
2016-05-10T01:08:13.925Z,15.65
2016-05-10T01:09:13.911Z,15.61
2016-05-10T01:10:13.898Z,15.57
2016-05-10T01:11:13.870Z,15.58
2016-05-10T01:12:13.857Z,15.52
2016-05-10T01:13:13.844Z,15.46
2016-05-10T01:14:14.003Z,15.54
2016-05-10T01:15:13.803Z,15.52
2016-05-10T01:16:13.774Z,15.44
2016-05-10T01:17:13.761Z,15.49
2016-05-10T01:18:13.733Z,15.49
2016-05-10T01:19:13.719Z,15.46
2016-05-10T01:20:13.691Z,15.54
2016-05-10T01:21:13.678Z,15.46
2016-05-10T01:22:13.509Z,15.43
2016-05-10T01:23:13.652Z,15.44
2016-05-10T01:24:13.624Z,15.54
2016-05-10T01:25:13.596Z,15.49
2016-05-10T01:26:13.582Z,15.44
2016-05-10T01:27:13.554Z,15.51
2016-05-10T01:28:13.540Z,15.44
2016-05-10T01:29:13.371Z,15.42
2016-05-10T01:30:13.343Z,15.46
2016-05-10T01:31:13.329Z,15.44
2016-05-10T01:32:13.457Z,15.52
2016-05-10T01:33:13.445Z,15.43
2016-05-10T01:34:13.417Z,15.44
2016-05-10T01:35:13.403Z,15.52
2016-05-10T01:36:13.390Z,15.42
2016-05-10T01:37:13.362Z,15.44
2016-05-10T01:38:13.333Z,15.46
2016-05-10T01:39:13.320Z,15.44
2016-05-10T01:40:13.308Z,15.42
2016-05-10T01:41:13.279Z,15.43
2016-05-10T01:42:13.266Z,15.39
2016-05-10T01:43:13.237Z,15.4
2016-05-10T01:44:13.083Z,15.42
2016-05-10T01:45:13.336Z,15.4
2016-05-10T01:46:13.183Z,15.43
2016-05-10T01:47:13.155Z,15.42
2016-05-10T01:48:13.142Z,15.36
2016-05-10T01:49:13.113Z,15.42
2016-05-10T01:50:13.099Z,15.36
2016-05-10T01:51:13.087Z,15.4
2016-05-10T01:52:13.058Z,15.42
2016-05-10T01:53:13.046Z,15.44
2016-05-10T01:54:13.017Z,15.42
2016-05-10T01:55:13.019Z,15.42
2016-05-10T01:56:12.976Z,15.46
2016-05-10T01:57:12.962Z,15.4
2016-05-10T01:58:12.950Z,15.42
2016-05-10T01:59:12.765Z,15.44
2016-05-10T02:00:12.908Z,15.42
2016-05-10T02:01:12.723Z,15.42
2016-05-10T02:02:12.867Z,15.37
2016-05-10T02:03:12.837Z,15.42
2016-05-10T02:04:12.825Z,15.39
2016-05-10T02:05:12.796Z,15.42
2016-05-10T02:06:12.784Z,15.43
2016-05-10T02:07:12.771Z,15.42
2016-05-10T02:08:12.758Z,15.4
2016-05-10T02:09:12.713Z,15.39
2016-05-10T02:10:12.700Z,15.37
2016-05-10T02:11:12.672Z,15.43
2016-05-10T02:12:12.659Z,15.42
2016-05-10T02:13:12.647Z,15.4
2016-05-10T02:14:12.789Z,15.43
2016-05-10T02:15:12.605Z,15.46
2016-05-10T02:16:12.575Z,15.42
2016-05-10T02:17:12.563Z,15.44
2016-05-10T02:18:12.394Z,15.42
2016-05-10T02:19:12.522Z,15.43
2016-05-10T02:20:12.508Z,15.42
2016-05-10T02:21:12.496Z,15.44
2016-05-10T02:22:12.467Z,15.42
2016-05-10T02:23:12.454Z,15.36
2016-05-10T02:24:12.269Z,15.37
2016-05-10T02:25:12.413Z,15.42
2016-05-10T02:26:12.385Z,15.42
2016-05-10T02:27:12.355Z,15.42
2016-05-10T02:28:12.343Z,15.43
2016-05-10T02:29:12.330Z,15.42
2016-05-10T02:30:12.160Z,15.39
2016-05-10T02:31:12.288Z,15.43
2016-05-10T02:32:12.259Z,15.39
2016-05-10T02:33:12.246Z,15.36
2016-05-10T02:34:12.234Z,15.43
2016-05-10T02:35:12.206Z,15.29
2016-05-10T02:36:12.193Z,15.36
2016-05-10T02:37:12.179Z,15.44
2016-05-10T02:38:12.150Z,15.31
2016-05-10T02:39:12.137Z,15.43
2016-05-10T02:40:12.109Z,15.37
2016-05-10T02:41:12.097Z,15.35
2016-05-10T02:42:12.068Z,15.35
2016-05-10T02:43:12.039Z,15.37
2016-05-10T02:44:11.870Z,15.29
2016-05-10T02:45:12.013Z,15.4
2016-05-10T02:46:11.986Z,15.43
2016-05-10T02:47:11.972Z,15.35
2016-05-10T02:48:11.943Z,15.31
2016-05-10T02:49:11.931Z,15.31
2016-05-10T02:50:11.902Z,15.33
2016-05-10T02:51:11.888Z,15.36
2016-05-10T02:52:11.877Z,15.35
2016-05-10T02:53:11.847Z,15.33
2016-05-10T02:54:11.835Z,15.36
2016-05-10T02:55:11.650Z,15.33
2016-05-10T02:56:11.793Z,15.31
2016-05-10T02:57:11.765Z,15.44
2016-05-10T02:58:11.767Z,15.33
2016-05-10T02:59:13.066Z,15.36
2016-05-10T03:00:11.554Z,15.36
2016-05-10T03:01:11.540Z,15.35
2016-05-10T03:02:11.669Z,15.31
2016-05-10T03:03:11.656Z,15.35
2016-05-10T03:04:11.627Z,15.33
2016-05-10T03:05:11.614Z,15.33
2016-05-10T03:06:11.585Z,15.35
2016-05-10T03:07:11.417Z,15.31
2016-05-10T03:08:11.544Z,15.33
2016-05-10T03:09:11.531Z,15.33
2016-05-10T03:10:11.518Z,15.39
2016-05-10T03:11:11.333Z,15.22
2016-05-10T03:12:11.476Z,15.36
2016-05-10T03:13:11.448Z,15.31
2016-05-10T03:14:11.436Z,15.33
2016-05-10T03:15:11.406Z,15.31
2016-05-10T03:16:11.394Z,15.33
2016-05-10T03:17:11.380Z,15.24
2016-05-10T03:18:11.353Z,15.29
2016-05-10T03:19:11.324Z,15.27
2016-05-10T03:20:11.310Z,15.33
2016-05-10T03:21:11.283Z,15.21
2016-05-10T03:22:11.269Z,15.24
2016-05-10T03:23:11.255Z,15.27
2016-05-10T03:24:11.227Z,15.17
2016-05-10T03:25:11.215Z,15.31
2016-05-10T03:26:11.186Z,15.28
2016-05-10T03:27:11.174Z,15.19
2016-05-10T03:28:11.160Z,15.22
2016-05-10T03:29:11.132Z,15.21
2016-05-10T03:30:11.119Z,15.1
2016-05-10T03:31:11.090Z,15.18
2016-05-10T03:32:11.077Z,15.21
2016-05-10T03:33:11.049Z,15.17
2016-05-10T03:34:11.035Z,15.14
2016-05-10T03:35:11.023Z,15.11
2016-05-10T03:36:10.838Z,15.21
2016-05-10T03:37:10.965Z,15.15
2016-05-10T03:38:10.954Z,15.19
2016-05-10T03:39:10.923Z,15.19
2016-05-10T03:40:10.911Z,15.1
2016-05-10T03:41:10.898Z,15.19
2016-05-10T03:42:10.870Z,15.17
2016-05-10T03:43:10.857Z,15.14
2016-05-10T03:44:10.828Z,15.14
2016-05-10T03:45:10.815Z,15.19
2016-05-10T03:46:10.787Z,15.18
2016-05-10T03:47:10.774Z,15.21
2016-05-10T03:48:10.761Z,15.22
2016-05-10T03:49:10.733Z,15.22
2016-05-10T03:50:10.720Z,15.18
2016-05-10T03:51:10.535Z,15.21
2016-05-10T03:52:10.677Z,15.21
2016-05-10T03:53:10.649Z,15.17
2016-05-10T03:54:10.636Z,15.22
2016-05-10T03:55:10.624Z,15.21
2016-05-10T03:56:10.439Z,15.22
2016-05-10T03:57:10.567Z,15.28
2016-05-10T03:58:10.554Z,15.24
2016-05-10T03:59:10.540Z,15.27
2016-05-10T04:00:10.512Z,15.33
2016-05-10T04:01:10.483Z,15.35
2016-05-10T04:02:10.471Z,15.35
2016-05-10T04:03:10.457Z,15.4
2016-05-10T04:04:10.429Z,15.27
2016-05-10T04:05:10.415Z,15.33
2016-05-10T04:06:10.403Z,15.28
2016-05-10T04:07:10.374Z,15.35
2016-05-10T04:08:10.362Z,15.35
2016-05-10T04:09:10.334Z,15.43
2016-05-10T04:10:10.320Z,15.31
2016-05-10T04:11:10.292Z,15.43
2016-05-10T04:12:10.279Z,15.39
2016-05-10T04:13:10.250Z,15.39
2016-05-10T04:14:10.862Z,15.46
2016-05-10T04:15:10.225Z,15.46
2016-05-10T04:16:10.195Z,15.4
2016-05-10T04:17:10.183Z,15.49
2016-05-10T04:18:10.154Z,15.46
2016-05-10T04:19:09.985Z,15.43
2016-05-10T04:20:10.113Z,15.52
2016-05-10T04:21:09.943Z,15.47
2016-05-10T04:22:09.930Z,15.44
2016-05-10T04:23:10.058Z,15.52
2016-05-10T04:24:10.030Z,15.51
2016-05-10T04:25:10.017Z,15.54
2016-05-10T04:26:10.005Z,15.58
2016-05-10T04:27:09.975Z,15.57
2016-05-10T04:28:09.962Z,15.55
2016-05-10T04:29:10.465Z,15.59
2016-05-10T04:30:09.921Z,15.65
2016-05-10T04:31:09.908Z,15.65
2016-05-10T04:32:09.880Z,15.61
2016-05-10T04:33:09.866Z,15.7
2016-05-10T04:34:09.837Z,15.68
2016-05-10T04:35:09.825Z,15.79
2016-05-10T04:36:09.812Z,15.73
2016-05-10T04:37:09.784Z,15.77
2016-05-10T04:38:09.771Z,15.82
2016-05-10T04:39:09.757Z,15.77
2016-05-10T04:40:09.729Z,15.8
2016-05-10T04:41:09.559Z,15.86
2016-05-10T04:42:09.531Z,15.88
2016-05-10T04:43:09.675Z,15.86
2016-05-10T04:44:09.646Z,15.88
2016-05-10T04:45:09.634Z,15.86
2016-05-10T04:46:09.620Z,15.9
2016-05-10T04:47:09.591Z,15.95
2016-05-10T04:48:09.578Z,15.98
2016-05-10T04:49:09.566Z,16.02
2016-05-10T04:50:09.537Z,16.05
2016-05-10T04:51:09.525Z,16.09
2016-05-10T04:52:09.495Z,16.1
2016-05-10T04:53:09.482Z,16.08
2016-05-10T04:54:09.313Z,16.08
2016-05-10T04:55:09.441Z,16.09
2016-05-10T04:56:09.428Z,16.08
2016-05-10T04:57:09.415Z,16.13
2016-05-10T04:58:09.387Z,16.09
2016-05-10T04:59:09.374Z,16.2
2016-05-10T05:00:09.361Z,16.26
2016-05-10T05:01:09.333Z,16.31
2016-05-10T05:02:09.319Z,16.36
2016-05-10T05:03:09.291Z,16.31
2016-05-10T05:04:09.277Z,16.38
2016-05-10T05:05:09.249Z,16.39
2016-05-10T05:06:09.252Z,16.36
2016-05-10T05:07:09.223Z,16.32
2016-05-10T05:08:09.195Z,16.39
2016-05-10T05:09:09.182Z,16.35
2016-05-10T05:10:09.168Z,16.46
2016-05-10T05:11:09.157Z,16.46
2016-05-10T05:12:08.971Z,16.49
2016-05-10T05:13:09.114Z,16.5
2016-05-10T05:14:09.102Z,16.5
2016-05-10T05:15:09.073Z,16.49
2016-05-10T05:16:09.044Z,16.56
2016-05-10T05:17:09.032Z,16.6
2016-05-10T05:18:09.019Z,16.6
2016-05-10T05:19:09.006Z,16.66
2016-05-10T05:20:08.977Z,16.6
2016-05-10T05:21:08.964Z,16.65
2016-05-10T05:22:08.951Z,16.74
2016-05-10T05:23:08.922Z,16.68
2016-05-10T05:24:08.910Z,16.71
2016-05-10T05:25:08.897Z,16.76
2016-05-10T05:26:08.869Z,16.83
2016-05-10T05:27:08.871Z,16.87
2016-05-10T05:28:08.842Z,16.84
2016-05-10T05:29:09.860Z,16.91
2016-05-10T05:30:08.801Z,16.94
2016-05-10T05:31:08.788Z,16.97
2016-05-10T05:32:08.774Z,16.97
2016-05-10T05:33:08.778Z,16.93
2016-05-10T05:34:08.734Z,16.96
2016-05-10T05:35:08.721Z,16.99
2016-05-10T05:36:08.692Z,16.99
2016-05-10T05:37:08.679Z,16.96
2016-05-10T05:38:08.510Z,16.94
2016-05-10T05:39:08.637Z,16.97
2016-05-10T05:40:08.624Z,16.99
2016-05-10T05:41:08.612Z,16.99
2016-05-10T05:42:08.599Z,16.97
2016-05-10T05:43:08.570Z,17.01
2016-05-10T05:44:08.557Z,17.12
2016-05-10T05:45:08.388Z,17.09
2016-05-10T05:46:08.515Z,17.16
2016-05-10T05:47:08.518Z,17.26
2016-05-10T05:48:08.490Z,17.15
2016-05-10T05:49:08.461Z,17.23
2016-05-10T05:50:08.481Z,17.26
2016-05-10T05:51:08.451Z,17.33
2016-05-10T05:52:08.438Z,17.24
2016-05-10T05:53:08.394Z,17.39
2016-05-10T05:54:08.381Z,17.42
2016-05-10T05:55:08.368Z,17.46
2016-05-10T05:56:08.339Z,17.44
2016-05-10T05:57:08.405Z,17.51
2016-05-10T05:58:08.313Z,17.59
2016-05-10T05:59:09.910Z,17.6
2016-05-10T06:00:08.319Z,17.63
2016-05-10T06:01:08.260Z,17.63
2016-05-10T06:02:08.262Z,17.64
2016-05-10T06:03:08.077Z,17.68
2016-05-10T06:04:08.205Z,17.72
2016-05-10T06:05:08.192Z,17.79
2016-05-10T06:06:08.179Z,17.78
2016-05-10T06:07:08.166Z,17.76
2016-05-10T06:08:07.997Z,17.8
2016-05-10T06:09:08.125Z,17.8
2016-05-10T06:10:08.111Z,17.9
2016-05-10T06:11:08.114Z,18.03
2016-05-10T06:12:08.085Z,17.98
2016-05-10T06:13:08.073Z,18.1
2016-05-10T06:14:09.716Z,18.05
2016-05-10T06:15:08.048Z,18.19
2016-05-10T06:16:08.018Z,18.2
2016-05-10T06:17:08.005Z,18.28
2016-05-10T06:18:08.008Z,18.37
2016-05-10T06:19:07.964Z,18.43
2016-05-10T06:20:07.951Z,18.44
2016-05-10T06:21:07.939Z,18.52
2016-05-10T06:22:07.926Z,18.55
2016-05-10T06:23:07.912Z,18.56
2016-05-10T06:24:07.900Z,18.73
2016-05-10T06:25:07.886Z,18.74
2016-05-10T06:26:07.873Z,18.74
2016-05-10T06:27:07.860Z,18.86
2016-05-10T06:28:07.833Z,18.88
2016-05-10T06:29:07.819Z,18.95
2016-05-10T06:30:07.822Z,19.02
2016-05-10T06:31:07.793Z,19.12
2016-05-10T06:32:07.781Z,19.21
2016-05-10T06:33:07.766Z,19.26
2016-05-10T06:34:07.754Z,19.34
2016-05-10T06:35:07.741Z,19.37
2016-05-10T06:36:07.729Z,19.49
2016-05-10T06:37:07.715Z,19.48
2016-05-10T06:38:07.688Z,19.52
2016-05-10T06:39:07.690Z,19.66
2016-05-10T06:40:07.676Z,19.7
2016-05-10T06:41:07.648Z,19.77
2016-05-10T06:42:07.635Z,19.88
2016-05-10T06:43:07.623Z,19.94
2016-05-10T06:44:07.610Z,19.95
2016-05-10T06:45:07.440Z,20
2016-05-10T06:46:07.584Z,20.06
2016-05-10T06:47:07.571Z,20.03
2016-05-10T06:48:07.636Z,20.06
2016-05-10T06:49:07.545Z,20.19
2016-05-10T06:50:07.532Z,20.21
2016-05-10T06:51:07.519Z,20.31
2016-05-10T06:52:07.506Z,20.4
2016-05-10T06:53:07.493Z,20.51
2016-05-10T06:54:07.481Z,20.52
2016-05-10T06:55:07.467Z,20.62
2016-05-10T06:56:07.453Z,20.74
2016-05-10T06:57:07.285Z,20.88
2016-05-10T06:58:07.428Z,21
2016-05-10T06:59:07.416Z,21.05
2016-05-10T07:00:07.261Z,21.18
2016-05-10T07:01:07.233Z,21.3
2016-05-10T07:02:07.391Z,21.33
2016-05-10T07:03:07.380Z,21.39
2016-05-10T07:04:07.350Z,21.48
2016-05-10T07:05:07.353Z,21.57
2016-05-10T07:06:07.230Z,21.64
2016-05-10T07:07:07.327Z,21.77
2016-05-10T07:08:07.315Z,21.75
2016-05-10T07:09:07.301Z,21.72
2016-05-10T07:10:07.305Z,21.77
2016-05-10T07:11:07.276Z,21.77
2016-05-10T07:12:07.262Z,21.73
2016-05-10T07:13:07.265Z,21.82
2016-05-10T07:14:07.252Z,21.85
2016-05-10T07:15:07.240Z,21.92
2016-05-10T07:16:07.227Z,21.93
2016-05-10T07:17:07.354Z,22.02
2016-05-10T07:18:07.201Z,22.08
2016-05-10T07:19:07.187Z,22.13
2016-05-10T07:20:07.176Z,22.11
2016-05-10T07:21:07.021Z,22.23
2016-05-10T07:22:07.164Z,22.3
2016-05-10T07:23:07.151Z,22.25
2016-05-10T07:24:06.983Z,22.32
2016-05-10T07:25:07.126Z,22.36
2016-05-10T07:26:07.114Z,22.33
2016-05-10T07:27:07.100Z,22.38
2016-05-10T07:28:07.119Z,22.48
2016-05-10T07:29:06.933Z,22.47
2016-05-10T07:30:07.077Z,22.59
2016-05-10T07:31:07.063Z,22.63
2016-05-10T07:32:07.050Z,22.59
2016-05-10T07:33:07.053Z,22.69
2016-05-10T07:34:07.025Z,22.66
2016-05-10T07:35:07.028Z,22.68
2016-05-10T07:36:07.015Z,22.84
2016-05-10T07:37:07.002Z,22.9
2016-05-10T07:38:06.832Z,22.96
2016-05-10T07:39:06.819Z,23
2016-05-10T07:40:06.963Z,23.2
2016-05-10T07:41:06.949Z,23.2
2016-05-10T07:42:06.952Z,23.25
2016-05-10T07:43:06.987Z,23.13
2016-05-10T07:44:06.927Z,23.21
2016-05-10T07:45:06.946Z,23.28
2016-05-10T07:46:06.932Z,23.4
2016-05-10T07:47:06.904Z,23.48
2016-05-10T07:48:06.890Z,23.51
2016-05-10T07:49:06.878Z,23.55
2016-05-10T07:50:06.865Z,23.61
2016-05-10T07:51:06.852Z,23.63
2016-05-10T07:52:06.698Z,23.68
2016-05-10T07:53:06.842Z,23.8
2016-05-10T07:54:06.829Z,23.78
2016-05-10T07:55:06.817Z,23.76
2016-05-10T07:56:06.819Z,23.78
2016-05-10T07:57:06.806Z,23.86
2016-05-10T07:58:06.792Z,23.92
2016-05-10T07:59:06.780Z,23.93
2016-05-10T08:00:06.955Z,23.96
2016-05-10T08:01:06.753Z,24.06
2016-05-10T08:02:06.756Z,24.08
2016-05-10T08:03:06.744Z,24.16
2016-05-10T08:04:06.746Z,24.18
2016-05-10T08:05:06.718Z,24.29
2016-05-10T08:06:06.564Z,24.3
2016-05-10T08:07:06.692Z,24.43
2016-05-10T08:08:06.710Z,24.55
2016-05-10T08:09:06.697Z,24.54
2016-05-10T08:10:06.685Z,24.65
2016-05-10T08:11:06.671Z,24.73
2016-05-10T08:12:06.658Z,24.73
2016-05-10T08:13:06.661Z,24.77
2016-05-10T08:14:06.648Z,24.78
2016-05-10T08:15:06.635Z,24.89
2016-05-10T08:16:06.623Z,24.92
2016-05-10T08:17:06.609Z,24.95
2016-05-10T08:18:06.612Z,25.11
2016-05-10T08:19:06.599Z,25.21
2016-05-10T08:20:06.587Z,25.29
2016-05-10T08:21:06.573Z,25.25
2016-05-10T08:22:06.560Z,25.26
2016-05-10T08:23:06.579Z,25.38
2016-05-10T08:24:06.582Z,25.44
2016-05-10T08:25:06.553Z,25.44
2016-05-10T08:26:06.539Z,25.44
2016-05-10T08:27:06.558Z,25.53
2016-05-10T08:28:06.545Z,25.62
2016-05-10T08:29:06.517Z,25.8
2016-05-10T08:30:07.285Z,25.87
2016-05-10T08:31:06.506Z,25.87
2016-05-10T08:32:06.494Z,25.9
2016-05-10T08:33:06.480Z,25.87
2016-05-10T08:34:06.500Z,25.99
2016-05-10T08:35:06.470Z,26.06
2016-05-10T08:36:06.472Z,26.15
2016-05-10T08:37:06.460Z,26.26
2016-05-10T08:38:06.447Z,26.38
2016-05-10T08:39:06.293Z,26.47
2016-05-10T08:40:06.437Z,26.51
2016-05-10T08:41:06.440Z,26.62
2016-05-10T08:42:06.442Z,26.74
2016-05-10T08:43:06.429Z,26.7
2016-05-10T08:44:06.416Z,26.59
2016-05-10T08:45:06.247Z,26.71
2016-05-10T08:46:06.406Z,26.71
2016-05-10T08:47:06.409Z,26.89
2016-05-10T08:48:06.396Z,26.89
2016-05-10T08:49:06.258Z,26.96
2016-05-10T08:50:06.385Z,27.1
2016-05-10T08:51:06.279Z,27.17
2016-05-10T08:52:06.220Z,27.22
2016-05-10T08:53:06.207Z,27.32
2016-05-10T08:54:06.365Z,27.52
2016-05-10T08:55:06.368Z,27.52
2016-05-10T08:56:06.356Z,27.63
2016-05-10T08:57:06.342Z,27.82
2016-05-10T08:58:06.345Z,27.83
2016-05-10T08:59:06.347Z,27.86
2016-05-10T09:00:06.350Z,27.86
2016-05-10T09:01:06.337Z,27.92
2016-05-10T09:02:06.324Z,27.86
2016-05-10T09:03:06.545Z,27.82
2016-05-10T09:04:06.360Z,27.96
2016-05-10T09:05:06.316Z,28.12
2016-05-10T09:06:06.304Z,28.26
2016-05-10T09:07:06.306Z,28.27
2016-05-10T09:08:06.294Z,28.35
2016-05-10T09:09:06.453Z,28.23
2016-05-10T09:10:06.861Z,28.19
2016-05-10T09:11:19.849Z,28.11
2016-05-10T09:12:08.836Z,28.02
2016-05-10T09:13:07.338Z,27.98
2016-05-10T09:14:06.763Z,28.02
2016-05-10T09:15:06.922Z,27.95
2016-05-10T09:16:06.987Z,28.04
2016-05-10T09:17:06.880Z,28.04
2016-05-10T09:18:07.196Z,28.11
2016-05-10T09:19:06.750Z,28.22
2016-05-10T09:20:06.545Z,28.22
2016-05-10T09:21:07.011Z,28.35
2016-05-10T09:22:06.415Z,28.48
2016-05-10T09:23:06.506Z,28.63
2016-05-10T09:24:08.760Z,28.84
2016-05-10T09:25:06.465Z,28.91
2016-05-10T09:26:06.483Z,28.81
2016-05-10T09:27:06.486Z,28.88
2016-05-10T09:28:06.503Z,28.85
2016-05-10T09:29:06.512Z,28.94
2016-05-10T09:30:06.505Z,29.04
2016-05-10T09:31:06.512Z,29.12
2016-05-10T09:32:06.506Z,29.13
2016-05-10T09:33:06.513Z,29.27
2016-05-10T09:34:06.519Z,29.44
2016-05-10T09:35:06.366Z,29.56
2016-05-10T09:36:06.511Z,29.53
2016-05-10T09:37:06.516Z,29.5
2016-05-10T09:38:06.521Z,29.47
2016-05-10T09:39:06.524Z,29.41
2016-05-10T09:40:06.512Z,29.41
2016-05-10T09:41:06.515Z,29.26
2016-05-10T09:42:06.504Z,29.2
2016-05-10T09:43:06.508Z,29.32
2016-05-10T09:44:06.510Z,29.49
2016-05-10T09:45:06.357Z,29.66
2016-05-10T09:46:06.500Z,29.73
2016-05-10T09:47:06.504Z,29.94
2016-05-10T09:48:06.507Z,29.88
2016-05-10T09:49:06.509Z,29.94
2016-05-10T09:50:06.496Z,29.94
2016-05-10T09:51:06.498Z,30.23
2016-05-10T09:52:06.501Z,30.27
2016-05-10T09:53:06.348Z,30.43
2016-05-10T09:54:06.742Z,30.5
2016-05-10T09:55:06.494Z,30.65
2016-05-10T09:56:06.481Z,30.84
2016-05-10T09:57:06.500Z,30.85
2016-05-10T09:58:06.486Z,30.85
2016-05-10T09:59:06.506Z,30.78
2016-05-10T10:00:06.336Z,30.94
2016-05-10T10:01:06.323Z,31.02
2016-05-10T10:02:06.482Z,31.06
2016-05-10T10:03:06.531Z,31.25
2016-05-10T10:04:06.331Z,31.27
2016-05-10T10:05:06.505Z,31.42
2016-05-10T10:06:06.477Z,31.54
2016-05-10T10:07:06.480Z,31.78
2016-05-10T10:08:06.482Z,31.92
2016-05-10T10:09:06.502Z,32
2016-05-10T10:10:06.488Z,31.92
2016-05-10T10:11:06.475Z,31.78
2016-05-10T10:12:06.478Z,31.84
2016-05-10T10:13:06.496Z,31.97
2016-05-10T10:14:06.499Z,31.81
2016-05-10T10:15:06.485Z,31.76
2016-05-10T10:16:06.504Z,31.73
2016-05-10T10:17:06.351Z,31.73
2016-05-10T10:18:06.478Z,31.71
2016-05-10T10:19:06.496Z,31.7
2016-05-10T10:20:06.467Z,31.47
2016-05-10T10:21:06.471Z,31.56
2016-05-10T10:22:06.473Z,31.55
2016-05-10T10:23:06.460Z,31.37
2016-05-10T10:24:06.462Z,31.28
2016-05-10T10:25:06.466Z,31.22
2016-05-10T10:26:06.468Z,31.22
2016-05-10T10:27:06.456Z,31.31
2016-05-10T10:28:06.459Z,31.33
2016-05-10T10:29:06.461Z,31.2
2016-05-10T10:30:06.292Z,31.14
2016-05-10T10:31:06.466Z,31.05
2016-05-10T10:32:06.469Z,31.05
2016-05-10T10:33:06.300Z,30.97
2016-05-10T10:34:06.443Z,30.75
2016-05-10T10:35:06.446Z,30.65
2016-05-10T10:36:06.433Z,30.62
2016-05-10T10:37:06.435Z,30.54
2016-05-10T10:38:06.438Z,30.65
2016-05-10T10:39:06.425Z,30.61
2016-05-10T10:40:06.427Z,30.62
2016-05-10T10:41:06.431Z,30.63
2016-05-10T10:42:06.433Z,30.87
2016-05-10T10:43:06.264Z,30.84
2016-05-10T10:44:06.314Z,30.88
2016-05-10T10:45:06.410Z,30.91
2016-05-10T10:46:06.257Z,30.91
2016-05-10T10:47:06.244Z,30.75
2016-05-10T10:48:06.402Z,30.65
2016-05-10T10:49:06.404Z,30.63
2016-05-10T10:50:06.393Z,30.87
2016-05-10T10:51:06.396Z,30.77
2016-05-10T10:52:06.382Z,30.75
2016-05-10T10:53:06.229Z,30.78
2016-05-10T10:54:06.231Z,30.75
2016-05-10T10:55:06.406Z,30.77
2016-05-10T10:56:06.392Z,30.8
2016-05-10T10:57:06.364Z,30.87
2016-05-10T10:58:06.211Z,31
2016-05-10T10:59:06.370Z,31.03
2016-05-10T11:00:06.373Z,31.2
2016-05-10T11:01:06.359Z,31.06
2016-05-10T11:02:06.362Z,31.02
2016-05-10T11:03:06.350Z,30.91
2016-05-10T11:04:06.353Z,31.02
2016-05-10T11:05:06.339Z,31.03
2016-05-10T11:06:06.342Z,30.87
2016-05-10T11:07:06.328Z,30.87
2016-05-10T11:08:06.331Z,30.92
2016-05-10T11:09:06.427Z,30.96
2016-05-10T11:10:06.321Z,31.05
2016-05-10T11:11:06.324Z,30.9
2016-05-10T11:12:06.327Z,30.97
2016-05-10T11:13:06.329Z,31.03
2016-05-10T11:14:06.332Z,31.03
2016-05-10T11:15:06.179Z,30.99
2016-05-10T11:16:06.321Z,31
2016-05-10T11:17:06.309Z,31.02
2016-05-10T11:18:06.296Z,31.07
2016-05-10T11:19:06.158Z,31.24
2016-05-10T11:20:06.301Z,31.42
2016-05-10T11:21:06.288Z,31.39
2016-05-10T11:22:06.291Z,31.4
2016-05-10T11:23:06.326Z,31.42
2016-05-10T11:24:06.281Z,31.44
2016-05-10T11:25:06.284Z,31.34
2016-05-10T11:26:06.271Z,31.24
2016-05-10T11:27:06.273Z,31.18
2016-05-10T11:28:06.276Z,31.05
2016-05-10T11:29:06.263Z,31.06
2016-05-10T11:30:06.265Z,31.03
2016-05-10T11:31:06.268Z,30.88
2016-05-10T11:32:06.255Z,30.92
2016-05-10T11:33:06.258Z,31.06
2016-05-10T11:34:06.244Z,31.09
2016-05-10T11:35:06.247Z,31.29
2016-05-10T11:36:06.235Z,31.34
2016-05-10T11:37:06.238Z,31.46
2016-05-10T11:38:06.240Z,31.51
2016-05-10T11:39:06.243Z,31.55
2016-05-10T11:40:06.230Z,31.56
2016-05-10T11:41:06.233Z,31.56
2016-05-10T11:42:06.064Z,31.66
2016-05-10T11:43:06.222Z,31.78
2016-05-10T11:44:06.068Z,31.9
2016-05-10T11:45:06.213Z,31.84
2016-05-10T11:46:06.216Z,31.99
2016-05-10T11:47:06.218Z,32.04
2016-05-10T11:48:06.205Z,32.12
2016-05-10T11:49:06.207Z,32.09
2016-05-10T11:50:06.194Z,32.01
2016-05-10T11:51:06.213Z,31.9
2016-05-10T11:52:06.199Z,31.85
2016-05-10T11:53:06.031Z,31.77
2016-05-10T11:54:06.205Z,31.73
2016-05-10T11:55:06.036Z,31.73
2016-05-10T11:56:06.023Z,31.64
2016-05-10T11:57:06.182Z,31.58
2016-05-10T11:58:06.184Z,31.54
2016-05-10T11:59:06.172Z,31.39
2016-05-10T12:00:06.284Z,31.36
2016-05-10T12:01:06.161Z,31.34
2016-05-10T12:02:06.164Z,31.34
2016-05-10T12:03:06.182Z,31.21
2016-05-10T12:04:06.153Z,31.24
2016-05-10T12:05:06.156Z,31.36
2016-05-10T12:06:06.144Z,31.4
2016-05-10T12:07:06.147Z,31.44
2016-05-10T12:08:06.133Z,31.52
2016-05-10T12:09:06.136Z,31.49
2016-05-10T12:10:06.139Z,31.65
2016-05-10T12:11:06.126Z,31.58
2016-05-10T12:12:05.988Z,31.7
2016-05-10T12:13:06.131Z,31.71
2016-05-10T12:14:06.119Z,31.76
2016-05-10T12:15:06.136Z,31.7
2016-05-10T12:16:05.968Z,31.69
2016-05-10T12:17:06.111Z,31.66
2016-05-10T12:18:06.098Z,31.62
2016-05-10T12:19:06.101Z,31.51
2016-05-10T12:20:06.104Z,31.52
2016-05-10T12:21:05.965Z,31.52
2016-05-10T12:22:05.937Z,31.54
2016-05-10T12:23:06.096Z,31.4
2016-05-10T12:24:05.942Z,31.4
2016-05-10T12:25:06.102Z,31.4
2016-05-10T12:26:06.088Z,31.42
2016-05-10T12:27:06.075Z,31.33
2016-05-10T12:28:06.079Z,31.29
2016-05-10T12:29:06.065Z,31.33
2016-05-10T12:30:06.037Z,31.37
2016-05-10T12:31:06.071Z,31.43
2016-05-10T12:32:06.056Z,31.46
2016-05-10T12:33:06.076Z,31.47
2016-05-10T12:34:06.048Z,31.42
2016-05-10T12:35:06.050Z,31.33
2016-05-10T12:36:06.037Z,31.36
2016-05-10T12:37:05.884Z,31.18
2016-05-10T12:38:06.042Z,31.21
2016-05-10T12:39:06.061Z,31.2
2016-05-10T12:40:06.032Z,31.12
2016-05-10T12:41:05.863Z,31.12
2016-05-10T12:42:06.022Z,31.21
2016-05-10T12:43:06.009Z,31.22
2016-05-10T12:44:06.011Z,31.22
2016-05-10T12:45:06.671Z,31.29
2016-05-10T12:46:07.954Z,31.39
2016-05-10T12:47:20.161Z,31.54
2016-05-10T12:48:05.991Z,31.55
2016-05-10T12:49:05.978Z,31.54
2016-05-10T12:50:05.980Z,31.49
2016-05-10T12:51:17.765Z,31.58
2016-05-10T12:52:05.971Z,31.49
2016-05-10T12:53:05.974Z,31.4
2016-05-10T12:54:05.976Z,31.43
2016-05-10T12:55:05.978Z,31.42